Flight Track Log - Related Links

Times and Time Zones

All times are in EDT time to prevent confusion due to time zone crossing. See the N53NW flight status page for this flight to view local times or setup timezone preferences in your user account.

Time Position Orientation Groundspeed Altitude Reporting Facility
EDT Latitude Longitude Course Direction KTS MPH feet Rate Location/Type
Fri 05:16:42 PM 42.0617 -102.9875 268° West 240 276 9,800  Level Salt Lake Center
Fri 05:17:48 PM 42.0725 -103.0903 278° West 246 283 12,900 2,578 Climbing Denver Center
Fri 05:18:50 PM 42.0844 -103.1953 279° West 254 292 15,300 2,081 Climbing Denver Center
Fri 05:19:52 PM 42.0936 -103.2983 277° West 284 327 17,200 1,839 Climbing Denver Center
Fri 05:20:54 PM 42.1050 -103.4064 278° West 302 348 19,100 1,984 Climbing Denver Center
Fri 05:21:56 PM 42.1189 -103.5383 278° West 316 364 21,300 1,984 Climbing Denver Center
Fri 05:22:58 PM 42.1303 -103.6528 278° West 322 371 23,200 2,032 Climbing Denver Center
Fri 05:24:00 PM 42.1436 -103.7906 277° West 329 379 25,500 2,032 Climbing Denver Center
Fri 05:25:02 PM 42.1544 -103.9114 277° West 337 388 27,400 1,968 Climbing Denver Center
Fri 05:26:05 PM 42.1678 -104.0519 277° West 338 389 29,600 1,920 Climbing Denver Center
Fri 05:27:07 PM 42.1867 -104.1692 282° West 336 387 31,400 1,790 Climbing Denver Center
Fri 05:28:09 PM 42.2108 -104.3067 283° West 336 387 33,300 1,548 Climbing Denver Center
Fri 05:29:11 PM 42.2311 -104.4247 283° West 336 387 34,600 1,306 Climbing Denver Center
Fri 05:30:13 PM 42.2564 -104.5669 284° West 346 398 36,000 1,210 Climbing Denver Center
Fri 05:31:15 PM 42.2772 -104.6900 283° West 348 400 37,100 968 Climbing Denver Center
Fri 05:32:17 PM 42.2986 -104.8153 283° West 353 406 38,000 968 Climbing Denver Center
Fri 05:33:19 PM 42.3239 -104.9594 283° West 353 406 39,100 919 Climbing Denver Center
Fri 05:34:21 PM 42.3450 -105.0828 283° West 351 404 39,900 823 Climbing Denver Center
Fri 05:35:23 PM 42.3692 -105.2264 283° West 352 405 40,800 532 Climbing Denver Center
Fri 05:36:25 PM 42.3894 -105.3519 282° West 355 409 41,000 97 Climbing Denver Center
Fri 05:37:27 PM 42.4150 -105.5047 283° West 372 428 41,000  Level Denver Center
Fri 05:38:29 PM 42.4375 -105.6403 283° West 383 441 41,000  Level Denver Center
Fri 05:39:31 PM 42.4619 -105.7983 282° West 384 442 41,000  Level Denver Center
Fri 05:40:33 PM 42.4844 -105.9342 283° West 385 443 41,000 97 Level Denver Center
Fri 05:41:35 PM 42.5067 -106.0694 283° West 386 444 41,200 912 Climbing Denver Center
Fri 05:42:38 PM 42.5331 -106.2189 284° West 369 425 42,900 864 Climbing Denver Center
Fri 05:43:40 PM 42.5506 -106.3419 281° West 352 405 43,000 48 Climbing Denver Center
Fri 05:44:42 PM 42.5733 -106.4931 282° West 366 421 43,000  Level Denver Center
Fri 05:45:44 PM 42.5939 -106.6267 282° West 377 434 43,000  Level Denver Center
Fri 05:46:46 PM 42.6175 -106.7828 282° West 381 438 43,000  Level Denver Center
Fri 05:47:48 PM 42.6381 -106.9183 282° West 382 440 43,000  Level Denver Center
Fri 05:48:50 PM 42.6625 -107.0728 282° West 375 432 43,000  Level Denver Center
Fri 05:49:52 PM 42.6825 -107.2044 282° West 374 430 43,000  Level Denver Center
Fri 05:50:54 PM 42.7047 -107.3586 281° West 368 423 43,000  Level Denver Center
Fri 05:51:51 PM 42.7203 -107.4689 281° West 369 425 43,000  Level Salt Lake Center
Fri 05:52:53 PM 42.7442 -107.6206 282° West 369 425 43,000  Level Salt Lake Center
Fri 05:53:55 PM 42.7617 -107.7497 280° West 366 421 43,000  Level Salt Lake Center
Fri 05:54:57 PM 42.7825 -107.9028 281° West 370 426 43,000  Level Salt Lake Center
Fri 05:55:59 PM 42.8011 -108.0314 281° West 365 420 43,000  Level Salt Lake Center
Fri 05:57:01 PM 42.8239 -108.1919 281° West 381 438 43,000  Level Salt Lake Center
Fri 05:58:03 PM 42.8431 -108.3289 281° West 384 442 43,000  Level Salt Lake Center
Fri 05:59:05 PM 42.8658 -108.4903 281° West 387 445 43,000  Level Salt Lake Center
Fri 06:00:07 PM 42.8842 -108.6283 280° West 389 448 43,000  Level Salt Lake Center
Fri 06:01:09 PM 42.9056 -108.7886 280° West 388 447 43,000  Level Salt Lake Center
Fri 06:02:11 PM 42.9239 -108.9256 280° West 385 443 43,000  Level Salt Lake Center
Fri 06:03:13 PM 42.9450 -109.0869 280° West 387 445 43,000  Level Salt Lake Center
Fri 06:04:15 PM 42.9628 -109.2239 280° West 384 442 43,000  Level Salt Lake Center
Fri 06:05:17 PM 42.9836 -109.3875 280° West 387 445 43,000  Level Salt Lake Center
Fri 06:06:19 PM 43.0019 -109.5325 280° West 387 445 43,000  Level Salt Lake Center
Fri 06:07:21 PM 43.0200 -109.6744 280° West 382 440 43,000  Level Salt Lake Center
Fri 06:08:23 PM 43.0375 -109.8172 280° West 381 438 43,000  Level Salt Lake Center
Fri 06:09:25 PM 43.0575 -109.9736 280° West 381 438 43,000  Level Salt Lake Center
Fri 06:10:27 PM 43.0733 -110.1122 279° West 384 442 43,000  Level Salt Lake Center
Fri 06:11:29 PM 43.0933 -110.2706 280° West 379 436 43,000  Level Salt Lake Center
Fri 06:12:31 PM 43.1097 -110.4086 279° West 382 440 43,000  Level Salt Lake Center
Fri 06:13:33 PM 43.1283 -110.5689 279° West 382 440 43,000  Level Salt Lake Center
Fri 06:14:35 PM 43.1450 -110.7044 280° West 378 435 43,000  Level Salt Lake Center
Fri 06:15:37 PM 43.1633 -110.8636 279° West 379 436 43,000 -387 Level Salt Lake Center
Fri 06:16:39 PM 43.1789 -111.0019 279° West 381 438 42,200 -1,113 Descending Salt Lake Center
Fri 06:17:41 PM 43.1947 -111.1414 279° West 384 442 40,700 -1,597 Descending Salt Lake Center
Fri 06:18:43 PM 43.2136 -111.3039 279° West 386 444 38,900 -1,645 Descending Salt Lake Center
Fri 06:19:45 PM 43.2278 -111.4414 278° West 382 440 37,300 -1,742 Descending Salt Lake Center
Fri 06:20:47 PM 43.2453 -111.6022 279° West 383 441 35,300 -1,887 Descending Salt Lake Center
Fri 06:21:49 PM 43.2617 -111.7422 279° West 386 444 33,400 -1,984 Descending Salt Lake Center
Fri 06:22:51 PM 43.2792 -111.9147 278° West 404 465 31,200 -2,032 Descending Salt Lake Center
Fri 06:23:53 PM 43.2939 -112.0608 278° West 405 466 29,200 -2,032 Descending Salt Lake Center
Fri 06:24:55 PM 43.3125 -112.2322 279° West 406 467 27,000 -2,032 Descending Salt Lake Center
Fri 06:25:57 PM 43.3275 -112.3778 278° West 404 465 25,000 -1,887 Descending Salt Lake Center
Fri 06:26:59 PM 43.3411 -112.5194 278° West 396 456 23,100 -2,000 Descending Salt Lake Center
Fri 06:28:00 PM 43.3556 -112.6736 277° West 376 433 20,900 -1,512 Descending Salt Lake Center
Fri 06:29:02 PM 43.3697 -112.8047 278° West 367 422 20,000 -823 Descending Salt Lake Center
Fri 06:30:04 PM 43.3828 -112.9531 277° West 357 411 19,200 -1,065 Descending Salt Lake Center
Fri 06:31:06 PM 43.3950 -113.0803 278° West 353 406 17,800 -1,355 Descending Salt Lake Center
Fri 06:32:08 PM 43.4086 -113.2206 278° West 339 390 16,400 -871 Descending Salt Lake Center
Fri 06:33:10 PM 43.4189 -113.3389 277° West 329 379 16,000 -774 Descending Salt Lake Center
Fri 06:34:12 PM 43.4131 -113.4725 267° West 317 365 14,800 -1,161 Descending Salt Lake Center
Fri 06:35:14 PM 43.4003 -113.5836 261° West 311 358 13,600 -1,065 Descending Salt Lake Center
Fri 06:36:16 PM 43.3922 -113.6881 264° West 299 344 12,600 -780 Descending Salt Lake Center
Fri 06:37:17 PM 43.3800 -113.8050 262° West 286 329 12,000 -488 Descending Salt Lake Center
Fri 06:38:19 PM 43.3669 -113.9153 261° West 282 325 11,600 -387 Descending Salt Lake Center
Fri 06:40:00 PM 43.3276 -114.1352 261° West  Level FlightAware Approximate
Fri 06:47:00 PM 43.5000 -114.2833 351° North  Level FlightAware Approximate
Fri 06:48:00 PM 43.5038 -114.2956 351° North  Level Estimated
Fri 06:49:00 PM 43.5038 -114.2956 351° North  Level Estimated
Fri 06:50:00 PM 43.5038 -114.2956 351° North  Level Estimated
Fri 06:51:00 PM 43.5038 -114.2956 351° North  Level Estimated

Login

Don't have an account? Register now (free) for customized features, flight alerts, and more!